createdAt,value
2018-02-16T00:00:53.267Z,23.83
2018-02-16T00:03:20.704Z,27.42
2018-02-16T00:05:48.184Z,28.03
2018-02-16T00:08:16.165Z,24.60
2018-02-16T00:10:43.640Z,26.27
2018-02-16T00:13:11.106Z,24.57
2018-02-16T00:15:38.592Z,25.77
2018-02-16T00:18:06.066Z,28.25
2018-02-16T00:20:33.546Z,26.57
2018-02-16T00:23:01.011Z,28.30
2018-02-16T00:25:28.461Z,28.17
2018-02-16T00:27:55.936Z,29.90
2018-02-16T00:30:29.553Z,27.85
2018-02-16T00:32:57.315Z,25.27
2018-02-16T00:35:24.760Z,26.27
2018-02-16T00:37:52.232Z,23.57
2018-02-16T00:40:19.682Z,27.10
2018-02-16T00:42:47.153Z,30.50
2018-02-16T00:45:15.408Z,24.12
2018-02-16T00:47:42.855Z,29.15
2018-02-16T00:50:10.302Z,27.73
2018-02-16T00:52:38.724Z,26.60
2018-02-16T00:55:06.265Z,26.17
2018-02-16T00:57:33.741Z,26.97
2018-02-16T01:00:01.212Z,25.90
2018-02-16T01:02:28.652Z,27.15
2018-02-16T01:04:56.159Z,25.57
2018-02-16T01:07:23.617Z,27.00
2018-02-16T01:09:51.076Z,26.40
2018-02-16T01:12:18.552Z,24.83
2018-02-16T01:14:47.437Z,24.86
2018-02-16T01:17:14.929Z,25.90
2018-02-16T01:19:42.409Z,25.70
2018-02-16T01:22:09.847Z,25.77
2018-02-16T01:24:38.072Z,24.70
2018-02-16T01:27:06.244Z,27.15
2018-02-16T01:29:33.690Z,26.17
2018-02-16T01:32:01.140Z,25.20
2018-02-16T01:34:28.808Z,24.90
2018-02-16T01:36:56.268Z,25.62
2018-02-16T01:39:23.722Z,27.58
2018-02-16T01:41:51.214Z,25.90
2018-02-16T01:44:19.818Z,25.98
2018-02-16T01:46:47.333Z,26.60
2018-02-16T01:49:14.840Z,28.37
2018-02-16T01:51:43.063Z,26.60
2018-02-16T01:54:10.860Z,25.03
2018-02-16T01:56:39.057Z,27.65
2018-02-16T01:59:06.547Z,29.00
2018-02-16T02:01:34.001Z,26.37
2018-02-16T02:04:01.516Z,29.57
2018-02-16T02:06:29.126Z,25.85
2018-02-16T02:08:56.587Z,24.70
2018-02-16T02:11:24.156Z,25.77
2018-02-16T02:13:52.562Z,26.35
2018-02-16T02:16:20.030Z,24.98
2018-02-16T02:18:47.487Z,25.00
2018-02-16T02:21:14.956Z,27.45
2018-02-16T02:23:42.589Z,25.17
2018-02-16T02:26:10.033Z,25.37
2018-02-16T02:28:37.532Z,25.57
2018-02-16T02:31:04.993Z,24.97
2018-02-16T02:33:32.551Z,27.50
2018-02-16T02:36:01.493Z,27.80
2018-02-16T02:38:28.940Z,28.83
2018-02-16T02:40:56.417Z,25.93
2018-02-16T02:43:23.863Z,23.80
2018-02-16T02:45:51.358Z,26.50
2018-02-16T02:48:18.813Z,27.98
2018-02-16T02:50:46.265Z,25.70
2018-02-16T02:53:14.668Z,28.42
2018-02-16T02:55:42.149Z,27.60
2018-02-16T02:58:09.640Z,26.00
2018-02-16T03:00:37.421Z,25.67
2018-02-16T03:03:04.860Z,26.47
2018-02-16T03:05:32.329Z,25.40
2018-02-16T03:07:59.776Z,25.90
2018-02-16T03:10:28.172Z,27.67
2018-02-16T03:12:55.715Z,26.48
2018-02-16T03:15:23.167Z,27.85
2018-02-16T03:17:50.713Z,26.37
2018-02-16T03:20:18.335Z,24.42
2018-02-16T03:22:46.550Z,26.92
2018-02-16T03:25:14.059Z,25.00
2018-02-16T03:27:42.715Z,25.23
2018-02-16T03:30:11.078Z,24.95
2018-02-16T03:32:41.912Z,25.60
2018-02-16T03:35:09.383Z,27.30
2018-02-16T03:37:38.109Z,26.17
2018-02-16T03:40:05.884Z,27.37
2018-02-16T03:42:33.367Z,27.60
2018-02-16T03:45:00.824Z,26.10
2018-02-16T03:47:31.958Z,25.05
2018-02-16T03:49:59.399Z,24.90
2018-02-16T03:52:26.880Z,27.62
2018-02-16T03:54:54.353Z,27.00
2018-02-16T03:57:21.855Z,26.25
2018-02-16T03:59:49.317Z,28.58
2018-02-16T04:02:17.960Z,27.70
2018-02-16T04:04:45.872Z,26.20
2018-02-16T04:07:13.358Z,26.92
2018-02-16T04:09:40.811Z,28.27
2018-02-16T04:12:08.276Z,26.07
2018-02-16T04:14:35.748Z,27.55
2018-02-16T04:17:03.215Z,25.77
2018-02-16T04:19:31.004Z,26.87
2018-02-16T04:21:58.642Z,26.27
2018-02-16T04:24:30.232Z,26.03
2018-02-16T04:26:57.952Z,26.90
2018-02-16T04:29:25.439Z,27.43
2018-02-16T04:31:52.886Z,25.73
2018-02-16T04:34:20.554Z,27.00
2018-02-16T04:36:48.033Z,27.36
2018-02-16T04:39:15.463Z,29.27
2018-02-16T04:41:43.911Z,28.13
2018-02-16T04:44:11.379Z,25.73
2018-02-16T04:46:38.843Z,27.00
2018-02-16T04:49:07.112Z,25.40
2018-02-16T04:51:34.560Z,27.48
2018-02-16T04:54:07.370Z,27.96
2018-02-16T04:56:34.827Z,28.42
2018-02-16T04:59:02.323Z,28.95
2018-02-16T05:01:30.568Z,26.20
2018-02-16T05:03:58.019Z,28.40
2018-02-16T05:06:25.518Z,28.17
2018-02-16T05:08:57.334Z,26.00
2018-02-16T05:11:24.789Z,27.23
2018-02-16T05:13:52.814Z,26.95
2018-02-16T05:16:20.347Z,26.60
2018-02-16T05:18:48.577Z,26.00
2018-02-16T05:21:16.044Z,28.37
2018-02-16T05:23:43.492Z,26.33
2018-02-16T05:26:11.907Z,29.33
2018-02-16T05:28:40.161Z,27.52
2018-02-16T05:31:07.623Z,29.97
2018-02-16T05:33:35.072Z,28.30
2018-02-16T05:36:02.545Z,27.87
2018-02-16T05:38:33.796Z,25.63
2018-02-16T05:41:01.733Z,27.50
2018-02-16T05:43:29.221Z,24.90
2018-02-16T05:45:56.668Z,29.90
2018-02-16T05:48:24.115Z,30.57
2018-02-16T05:50:51.615Z,31.53
2018-02-16T05:53:19.120Z,32.30
2018-02-16T05:55:46.569Z,30.43
2018-02-16T05:58:14.107Z,29.57
2018-02-16T06:00:41.912Z,29.57
2018-02-16T06:03:09.867Z,34.23
2018-02-16T06:05:37.352Z,31.33
2018-02-16T06:08:04.811Z,30.87
2018-02-16T06:10:32.293Z,30.53
2018-02-16T06:12:59.776Z,31.13
2018-02-16T06:15:27.233Z,31.83
2018-02-16T06:17:54.722Z,31.97
2018-02-16T06:20:22.174Z,33.92
2018-02-16T06:22:49.683Z,32.50
2018-02-16T06:25:18.644Z,30.50
2018-02-16T06:27:46.107Z,31.90
2018-02-16T06:30:13.565Z,30.63
2018-02-16T06:32:41.195Z,27.40
2018-02-16T06:35:09.321Z,29.80
2018-02-16T06:37:37.640Z,34.90
2018-02-16T06:40:05.069Z,30.60
2018-02-16T06:42:32.555Z,31.37
2018-02-16T06:45:00.091Z,30.00
2018-02-16T06:47:27.557Z,31.80
2018-02-16T06:49:55.052Z,31.00
2018-02-16T06:52:22.508Z,28.75
2018-02-16T06:54:50.597Z,31.85
2018-02-16T06:57:18.072Z,31.07
2018-02-16T06:59:45.526Z,30.00
2018-02-16T07:02:12.997Z,31.93
2018-02-16T07:04:40.444Z,31.87
2018-02-16T07:07:08.165Z,32.17
2018-02-16T07:09:35.806Z,33.10
2018-02-16T07:12:03.278Z,29.90
2018-02-16T07:14:30.755Z,29.07
2018-02-16T07:16:58.953Z,28.92
2018-02-16T07:19:27.152Z,29.57
2018-02-16T07:21:54.681Z,32.60
2018-02-16T07:24:22.166Z,28.80
2018-02-16T07:26:49.641Z,32.50
2018-02-16T07:29:18.044Z,31.20
2018-02-16T07:31:45.493Z,32.50
2018-02-16T07:34:12.939Z,32.33
2018-02-16T07:36:40.436Z,30.30
2018-02-16T07:39:07.884Z,30.63
2018-02-16T07:41:39.908Z,30.17
2018-02-16T07:44:08.309Z,32.05
2018-02-16T07:46:35.779Z,30.40
2018-02-16T07:49:03.408Z,31.40
2018-02-16T07:51:32.773Z,29.30
2018-02-16T07:54:00.246Z,29.20
2018-02-16T07:56:27.745Z,30.73
2018-02-16T07:58:55.218Z,32.10
2018-02-16T08:01:22.692Z,32.27
2018-02-16T08:03:50.188Z,31.60
2018-02-16T08:06:17.640Z,29.60
2018-02-16T08:08:46.266Z,25.37
2018-02-16T08:11:13.731Z,29.20
2018-02-16T08:13:41.171Z,26.47
2018-02-16T08:16:11.116Z,26.80
2018-02-16T08:18:38.614Z,27.77
2018-02-16T08:21:06.531Z,32.00
2018-02-16T08:23:34.063Z,28.77
2018-02-16T08:26:01.508Z,25.37
2018-02-16T08:28:28.987Z,28.83
2018-02-16T08:30:56.500Z,25.57
2018-02-16T08:33:24.776Z,26.30
2018-02-16T08:35:52.261Z,27.07
2018-02-16T08:38:19.901Z,26.65
2018-02-16T08:40:47.360Z,28.20
2018-02-16T08:43:14.972Z,25.43
2018-02-16T08:45:42.497Z,24.15
2018-02-16T08:48:09.972Z,27.27
2018-02-16T08:50:39.339Z,26.48
2018-02-16T08:53:06.813Z,26.30
2018-02-16T08:55:34.776Z,24.60
2018-02-16T08:58:03.808Z,21.00
2018-02-16T09:00:31.328Z,21.03
2018-02-16T09:02:59.852Z,18.90
2018-02-16T09:05:27.517Z,18.58
2018-02-16T09:07:55.056Z,17.67
2018-02-16T09:10:22.495Z,19.23
2018-02-16T09:12:49.948Z,14.90
2018-02-16T09:15:17.428Z,16.27
2018-02-16T09:17:44.900Z,14.60
2018-02-16T09:20:12.352Z,14.90
2018-02-16T09:22:39.975Z,14.13
2018-02-16T09:25:07.556Z,14.38
2018-02-16T09:27:39.632Z,12.20
2018-02-16T09:30:07.142Z,12.57
2018-02-16T09:32:34.863Z,13.27
2018-02-16T09:35:02.328Z,16.97
2018-02-16T09:37:29.991Z,16.03
2018-02-16T09:39:58.455Z,14.35
2018-02-16T09:42:25.911Z,14.67
2018-02-16T09:44:59.205Z,15.00
2018-02-16T09:47:26.721Z,13.63
2018-02-16T09:49:54.278Z,15.73
2018-02-16T09:52:21.761Z,14.00
2018-02-16T09:54:49.303Z,13.07
2018-02-16T09:57:16.876Z,15.68
2018-02-16T09:59:44.899Z,15.75
2018-02-16T10:02:12.344Z,15.13
2018-02-16T10:04:39.842Z,13.63
2018-02-16T10:07:07.342Z,16.35
2018-02-16T10:09:34.788Z,16.20
2018-02-16T10:12:02.267Z,16.10
2018-02-16T10:14:29.732Z,17.30
2018-02-16T10:16:58.866Z,15.50
2018-02-16T10:19:26.332Z,15.33
2018-02-16T10:21:53.827Z,17.70
2018-02-16T10:24:21.296Z,16.10
2018-02-16T10:26:48.756Z,18.05
2018-02-16T10:29:16.253Z,16.10
2018-02-16T10:31:43.721Z,16.85
2018-02-16T10:34:11.216Z,14.38
2018-02-16T10:36:38.680Z,17.57
2018-02-16T10:39:06.647Z,15.58
2018-02-16T10:41:34.191Z,19.60
2018-02-16T10:44:01.668Z,17.67
2018-02-16T10:46:29.936Z,15.70
2018-02-16T10:48:57.391Z,16.63
2018-02-16T10:51:26.383Z,16.33
2018-02-16T10:53:53.836Z,17.83
2018-02-16T10:56:21.301Z,16.87
2018-02-16T10:58:59.920Z,14.57
2018-02-16T11:01:27.402Z,16.20
2018-02-16T11:03:59.388Z,17.60
2018-02-16T11:06:32.636Z,15.90
2018-02-16T11:09:05.690Z,13.97
2018-02-16T11:11:33.609Z,14.90
2018-02-16T11:14:04.536Z,15.60
2018-02-16T11:16:32.004Z,16.10
2018-02-16T11:18:59.540Z,14.90
2018-02-16T11:21:27.108Z,15.73
2018-02-16T11:23:54.616Z,18.07
2018-02-16T11:26:23.009Z,17.05
2018-02-16T11:28:50.466Z,13.87
2018-02-16T11:31:17.959Z,15.23
2018-02-16T11:33:45.406Z,17.50
2018-02-16T11:36:14.316Z,16.02
2018-02-16T11:38:43.055Z,16.44
2018-02-16T11:41:10.559Z,15.90
2018-02-16T11:43:38.301Z,14.43
2018-02-16T11:46:05.768Z,14.95
2018-02-16T11:48:33.227Z,17.00
2018-02-16T11:51:01.196Z,15.27
2018-02-16T11:53:28.780Z,15.40
2018-02-16T11:55:56.820Z,16.30
2018-02-16T11:58:24.268Z,15.75
2018-02-16T12:00:51.721Z,16.03
2018-02-16T12:03:19.200Z,16.90
2018-02-16T12:05:46.668Z,14.20
2018-02-16T12:08:14.155Z,16.30
2018-02-16T12:10:41.612Z,16.47
2018-02-16T12:13:09.843Z,15.25
2018-02-16T12:15:37.300Z,17.47
2018-02-16T12:18:04.760Z,16.50
2018-02-16T12:20:32.212Z,18.63
2018-02-16T12:22:59.717Z,16.65
2018-02-16T12:25:27.175Z,17.47
2018-02-16T12:27:54.656Z,17.33
2018-02-16T12:30:26.120Z,15.70
2018-02-16T12:32:53.592Z,15.68
2018-02-16T12:35:21.143Z,15.47
2018-02-16T12:37:48.625Z,15.60
2018-02-16T12:40:16.851Z,15.43
2018-02-16T12:42:44.869Z,15.53
2018-02-16T12:45:12.742Z,17.52
2018-02-16T12:47:40.181Z,15.17
2018-02-16T12:50:07.627Z,13.60
2018-02-16T12:52:35.092Z,14.90
2018-02-16T12:55:02.536Z,14.98
2018-02-16T12:57:30.012Z,13.90
2018-02-16T12:59:57.776Z,13.67
2018-02-16T13:02:25.220Z,13.68
2018-02-16T13:04:52.696Z,12.77
2018-02-16T13:07:21.019Z,13.80
2018-02-16T13:09:48.469Z,13.83
2018-02-16T13:12:16.873Z,14.10
2018-02-16T13:14:44.877Z,13.87
2018-02-16T13:17:12.403Z,15.10
2018-02-16T13:19:40.064Z,15.40
2018-02-16T13:22:10.073Z,15.47
2018-02-16T13:24:37.516Z,14.20
2018-02-16T13:27:04.990Z,14.60
2018-02-16T13:29:32.427Z,15.00
2018-02-16T13:32:03.002Z,15.30
2018-02-16T13:34:30.462Z,15.85
2018-02-16T13:36:58.088Z,13.00
2018-02-16T13:39:25.561Z,15.73
2018-02-16T13:41:53.773Z,13.70
2018-02-16T13:44:21.268Z,13.07
2018-02-16T13:46:48.790Z,13.53
2018-02-16T13:49:17.040Z,15.60
2018-02-16T13:51:44.508Z,18.50
2018-02-16T13:54:11.965Z,14.10
2018-02-16T13:56:39.431Z,13.27
2018-02-16T13:59:08.422Z,13.95
2018-02-16T14:01:35.862Z,17.93
2018-02-16T14:04:03.332Z,18.30
2018-02-16T14:06:30.805Z,12.95
2018-02-16T14:08:58.520Z,12.40
2018-02-16T14:11:26.689Z,13.15
2018-02-16T14:13:54.352Z,14.63
2018-02-16T14:16:21.811Z,14.37
2018-02-16T14:18:49.275Z,11.80
2018-02-16T14:21:16.734Z,13.10
2018-02-16T14:23:44.184Z,14.93
2018-02-16T14:26:11.668Z,12.80
2018-02-16T14:28:39.132Z,12.67
2018-02-16T14:31:06.575Z,12.68
2018-02-16T14:33:34.179Z,11.35
2018-02-16T14:36:02.420Z,14.40
2018-02-16T14:38:30.677Z,14.77
2018-02-16T14:40:58.122Z,13.88
2018-02-16T14:43:25.589Z,17.23
2018-02-16T14:45:53.972Z,14.55
2018-02-16T14:48:22.210Z,13.93
2018-02-16T14:50:49.796Z,14.33
2018-02-16T14:53:17.302Z,13.43
2018-02-16T14:55:44.744Z,15.03
2018-02-16T14:58:12.186Z,15.93
2018-02-16T15:00:39.661Z,15.37
2018-02-16T15:03:08.683Z,15.68
2018-02-16T15:05:36.132Z,16.53
2018-02-16T15:08:03.636Z,15.10
2018-02-16T15:10:31.137Z,15.23
2018-02-16T15:12:58.631Z,14.80
2018-02-16T15:15:26.092Z,15.53
2018-02-16T15:17:57.147Z,20.17
2018-02-16T15:20:28.601Z,19.00
2018-02-16T15:22:58.488Z,17.90
2018-02-16T15:25:26.047Z,17.80
2018-02-16T15:27:53.680Z,15.20
2018-02-16T15:30:21.187Z,16.97
2018-02-16T15:32:48.673Z,17.33
2018-02-16T15:35:19.813Z,15.20
2018-02-16T15:37:47.387Z,18.62
2018-02-16T15:40:15.632Z,17.40
2018-02-16T15:42:43.104Z,19.20
2018-02-16T15:45:10.561Z,15.38
2018-02-16T15:47:38.040Z,16.73
2018-02-16T15:50:06.612Z,20.27
2018-02-16T15:52:34.083Z,17.02
2018-02-16T15:55:01.592Z,17.17
2018-02-16T15:57:29.038Z,18.92
2018-02-16T15:59:56.521Z,17.83
2018-02-16T16:02:26.437Z,18.43
2018-02-16T16:04:58.500Z,18.25
2018-02-16T16:07:25.984Z,16.33
2018-02-16T16:09:53.438Z,17.53
2018-02-16T16:12:21.643Z,16.97
2018-02-16T16:14:49.251Z,17.00
2018-02-16T16:17:16.696Z,16.12
2018-02-16T16:19:48.167Z,17.80
2018-02-16T16:22:15.671Z,18.40
2018-02-16T16:24:43.109Z,17.62
2018-02-16T16:27:10.583Z,18.62
2018-02-16T16:29:38.193Z,17.15
2018-02-16T16:32:05.677Z,14.80
2018-02-16T16:34:36.124Z,18.10
2018-02-16T16:37:05.464Z,16.17
2018-02-16T16:39:32.970Z,15.20
2018-02-16T16:42:00.435Z,19.40
2018-02-16T16:44:28.132Z,17.10
2018-02-16T16:46:55.692Z,19.63
2018-02-16T16:49:30.880Z,16.33
2018-02-16T16:51:58.355Z,14.45
2018-02-16T16:54:25.857Z,16.15
2018-02-16T16:56:53.434Z,18.27
2018-02-16T16:59:20.892Z,17.80
2018-02-16T17:01:49.163Z,15.70
2018-02-16T17:04:16.631Z,16.23
2018-02-16T17:06:44.887Z,16.33
2018-02-16T17:09:12.418Z,18.03
2018-02-16T17:11:39.891Z,19.27
2018-02-16T17:14:07.369Z,19.67
2018-02-16T17:16:34.932Z,18.40
2018-02-16T17:19:03.119Z,17.65
2018-02-16T17:21:30.567Z,16.85
2018-02-16T17:23:58.240Z,17.50
2018-02-16T17:26:25.817Z,16.83
2018-02-16T17:28:53.528Z,15.53
2018-02-16T17:31:21.012Z,20.35
2018-02-16T17:33:48.460Z,15.48
2018-02-16T17:36:16.651Z,19.80
2018-02-16T17:38:44.881Z,16.80
2018-02-16T17:41:12.564Z,13.53
2018-02-16T17:43:40.017Z,19.12
2018-02-16T17:46:07.484Z,18.73
2018-02-16T17:48:35.047Z,18.25
2018-02-16T17:51:05.880Z,18.60
2018-02-16T17:53:33.360Z,17.87
2018-02-16T17:56:01.581Z,18.80
2018-02-16T17:58:29.020Z,18.40
2018-02-16T18:00:56.506Z,18.17
2018-02-16T18:03:23.979Z,17.85
2018-02-16T18:05:54.949Z,16.57
2018-02-16T18:08:22.679Z,19.37
2018-02-16T18:10:50.138Z,42.17
2018-02-16T18:13:17.744Z,20.60
2018-02-16T18:15:45.182Z,18.00
2018-02-16T18:18:13.535Z,19.53
2018-02-16T18:20:41.012Z,18.27
2018-02-16T18:23:10.234Z,16.23
2018-02-16T18:25:37.798Z,20.20
2018-02-16T18:28:05.287Z,19.73
2018-02-16T18:30:32.723Z,17.80
2018-02-16T18:33:00.216Z,20.25
2018-02-16T18:35:29.691Z,18.70
2018-02-16T18:37:57.152Z,17.70
2018-02-16T18:40:24.836Z,17.70
2018-02-16T18:42:52.351Z,19.45
2018-02-16T18:45:19.808Z,19.50
2018-02-16T18:47:47.472Z,20.75
2018-02-16T18:50:14.928Z,19.10
2018-02-16T18:52:42.378Z,20.07
2018-02-16T18:55:09.844Z,19.47
2018-02-16T18:57:37.291Z,18.80
2018-02-16T19:00:05.524Z,20.07
2018-02-16T19:02:33.472Z,21.80
2018-02-16T19:05:02.128Z,18.90
2018-02-16T19:07:29.766Z,19.90
2018-02-16T19:09:58.012Z,20.70
2018-02-16T19:12:26.723Z,19.27
2018-02-16T19:14:54.563Z,20.33
2018-02-16T19:17:22.012Z,19.90
2018-02-16T19:19:49.475Z,20.12
2018-02-16T19:22:20.606Z,19.33
2018-02-16T19:24:48.286Z,18.87
2018-02-16T19:27:15.861Z,18.40
2018-02-16T19:29:44.068Z,21.77
2018-02-16T19:32:11.540Z,19.87
2018-02-16T19:34:38.984Z,18.58
2018-02-16T19:37:09.681Z,18.53
2018-02-16T19:39:37.238Z,19.50
2018-02-16T19:42:04.686Z,18.93
2018-02-16T19:44:32.941Z,18.37
2018-02-16T19:47:00.398Z,18.55
2018-02-16T19:49:28.091Z,20.07
2018-02-16T19:51:55.540Z,19.30
2018-02-16T19:54:22.997Z,17.43
2018-02-16T19:56:51.252Z,19.27
2018-02-16T19:59:18.801Z,18.77
2018-02-16T20:01:46.264Z,19.80
2018-02-16T20:04:14.868Z,19.47
2018-02-16T20:06:43.280Z,18.50
2018-02-16T20:09:10.729Z,19.20
2018-02-16T20:11:38.209Z,20.70
2018-02-16T20:14:05.668Z,19.27
2018-02-16T20:16:33.108Z,18.90
2018-02-16T20:19:00.622Z,19.25
2018-02-16T20:21:28.765Z,19.30
2018-02-16T20:23:57.100Z,20.40
2018-02-16T20:26:24.612Z,20.20
2018-02-16T20:28:52.383Z,19.30
2018-02-16T20:31:19.906Z,22.03
2018-02-16T20:33:47.984Z,20.23
2018-02-16T20:36:16.323Z,21.08
2018-02-16T20:38:49.221Z,21.17
2018-02-16T20:41:16.661Z,20.75
2018-02-16T20:43:44.132Z,20.60
2018-02-16T20:46:11.592Z,25.73
2018-02-16T20:48:39.606Z,25.13
2018-02-16T20:51:07.040Z,21.93
2018-02-16T20:53:34.536Z,19.48
2018-02-16T20:56:02.120Z,21.85
2018-02-16T20:58:30.558Z,21.48
2018-02-16T21:00:58.046Z,20.37
2018-02-16T21:03:25.495Z,23.63
2018-02-16T21:05:52.967Z,22.83
2018-02-16T21:08:20.417Z,22.40
2018-02-16T21:10:51.762Z,19.20
2018-02-16T21:13:20.237Z,19.80
2018-02-16T21:15:47.756Z,19.90
2018-02-16T21:18:15.192Z,20.27
2018-02-16T21:20:42.672Z,20.88
2018-02-16T21:23:10.104Z,21.23
2018-02-16T21:25:40.704Z,18.60
2018-02-16T21:28:08.181Z,19.77
2018-02-16T21:30:35.652Z,19.15
2018-02-16T21:33:03.426Z,19.45
2018-02-16T21:35:31.136Z,20.75
2018-02-16T21:37:58.607Z,19.97
2018-02-16T21:40:26.060Z,19.53
2018-02-16T21:42:53.565Z,21.07
2018-02-16T21:45:21.032Z,18.20
2018-02-16T21:47:48.489Z,20.33
2018-02-16T21:50:15.991Z,18.77
2018-02-16T21:52:43.428Z,20.47
2018-02-16T21:55:15.461Z,20.70
2018-02-16T21:57:42.919Z,20.10
2018-02-16T22:00:10.356Z,19.48
2018-02-16T22:02:37.984Z,20.47
2018-02-16T22:05:05.510Z,18.43
2018-02-16T22:07:32.960Z,19.92
2018-02-16T22:10:01.360Z,19.40
2018-02-16T22:12:28.893Z,19.90
2018-02-16T22:14:56.340Z,19.10
2018-02-16T22:17:23.907Z,18.12
2018-02-16T22:19:51.359Z,16.50
2018-02-16T22:22:20.524Z,18.63
2018-02-16T22:24:48.008Z,17.20
2018-02-16T22:27:18.549Z,16.23
2018-02-16T22:29:48.060Z,19.35
2018-02-16T22:32:15.528Z,22.10
2018-02-16T22:34:43.256Z,22.80
2018-02-16T22:37:10.752Z,22.85
2018-02-16T22:39:38.216Z,19.57
2018-02-16T22:42:05.678Z,20.40
2018-02-16T22:44:33.151Z,17.52
2018-02-16T22:47:00.604Z,17.27
2018-02-16T22:49:29.268Z,15.93
2018-02-16T22:51:56.955Z,19.87
2018-02-16T22:54:24.493Z,17.20
2018-02-16T22:56:52.125Z,19.40
2018-02-16T22:59:19.578Z,20.48
2018-02-16T23:01:48.882Z,20.77
2018-02-16T23:04:16.335Z,18.05
2018-02-16T23:06:43.820Z,17.35
2018-02-16T23:09:11.269Z,18.40
2018-02-16T23:11:38.797Z,17.58
2018-02-16T23:14:06.247Z,17.40
2018-02-16T23:16:33.688Z,16.23
2018-02-16T23:19:01.868Z,21.50
2018-02-16T23:21:29.490Z,19.67
2018-02-16T23:23:56.937Z,17.52
2018-02-16T23:26:28.804Z,18.87
2018-02-16T23:28:57.076Z,18.27
2018-02-16T23:31:24.542Z,18.67
2018-02-16T23:33:52.026Z,17.53
2018-02-16T23:36:19.540Z,18.77
2018-02-16T23:38:46.991Z,19.70
2018-02-16T23:41:17.563Z,19.25
2018-02-16T23:43:45.111Z,19.63
2018-02-16T23:46:13.324Z,19.20
2018-02-16T23:48:40.981Z,18.62
2018-02-16T23:51:08.468Z,18.93
2018-02-16T23:53:35.954Z,17.80
2018-02-16T23:56:03.473Z,18.83
2018-02-16T23:58:30.924Z,19.43
